Terminal Aerodrome Forecast
Issued by NWS Grand Forks, ND

Home | Current Version | Previous Version | Graphics & Text | Print | Product List | Glossary On
Versions: 1 2 3 4 5 6 7 8 9 10 11 12 13 14
000
FTUS43 KFGF 030520
TAFGFK
TAF
KGFK 030520Z 0306/0406 30007KT P6SM SKC
     FM031600 32012KT P6SM FEW050
     FM031800 32013G20KT P6SM FEW250
     FM040000 35008KT P6SM SKC=

USA.gov is the U.S. government's official web portal to all federal, state and local government web resources and services.